sensor_id;sensor_type;location;lat;lon;timestamp;pressure;altitude;pressure_sealevel;temperature;humidity
50790;BME280;37287;47.554;7.844;2023-09-19T00:01:07;97732.84;;;16.68;100.00
50790;BME280;37287;47.554;7.844;2023-09-19T00:03:38;97733.16;;;16.71;100.00
50790;BME280;37287;47.554;7.844;2023-09-19T00:06:10;97729.31;;;16.68;100.00
50790;BME280;37287;47.554;7.844;2023-09-19T00:08:37;97736.47;;;16.62;100.00
50790;BME280;37287;47.554;7.844;2023-09-19T00:11:03;97735.00;;;16.57;100.00
50790;BME280;37287;47.554;7.844;2023-09-19T00:13:30;97731.06;;;16.58;100.00
50790;BME280;37287;47.554;7.844;2023-09-19T00:15:57;97737.31;;;16.59;100.00
50790;BME280;37287;47.554;7.844;2023-09-19T00:18:25;97727.22;;;16.56;100.00
50790;BME280;37287;47.554;7.844;2023-09-19T00:21:01;97725.25;;;16.56;100.00
50790;BME280;37287;47.554;7.844;2023-09-19T00:23:27;97730.34;;;16.54;100.00
50790;BME280;37287;47.554;7.844;2023-09-19T00:25:58;97738.16;;;16.56;100.00
50790;BME280;37287;47.554;7.844;2023-09-19T00:28:27;97735.06;;;16.54;100.00
50790;BME280;37287;47.554;7.844;2023-09-19T00:30:54;97735.53;;;16.48;100.00
50790;BME280;37287;47.554;7.844;2023-09-19T00:33:22;97737.06;;;16.49;100.00
50790;BME280;37287;47.554;7.844;2023-09-19T00:35:50;97739.75;;;16.53;100.00
50790;BME280;37287;47.554;7.844;2023-09-19T00:38:17;97733.44;;;16.56;100.00
50790;BME280;37287;47.554;7.844;2023-09-19T00:40:48;97735.00;;;16.57;100.00
50790;BME280;37287;47.554;7.844;2023-09-19T00:43:15;97740.50;;;16.54;100.00
50790;BME280;37287;47.554;7.844;2023-09-19T00:45:46;97735.81;;;16.54;100.00
50790;BME280;37287;47.554;7.844;2023-09-19T00:48:18;97730.00;;;16.52;100.00
50790;BME280;37287;47.554;7.844;2023-09-19T00:50:48;97734.28;;;16.53;100.00
50790;BME280;37287;47.554;7.844;2023-09-19T00:53:19;97742.13;;;16.51;100.00
50790;BME280;37287;47.554;7.844;2023-09-19T00:55:48;97745.22;;;16.53;100.00
50790;BME280;37287;47.554;7.844;2023-09-19T00:58:17;97744.38;;;16.56;100.00
50790;BME280;37287;47.554;7.844;2023-09-19T01:00:48;97749.44;;;16.58;100.00
50790;BME280;37287;47.554;7.844;2023-09-19T01:03:15;97745.94;;;16.57;100.00
50790;BME280;37287;47.554;7.844;2023-09-19T01:05:45;97747.16;;;16.53;100.00
50790;BME280;37287;47.554;7.844;2023-09-19T01:08:13;97740.19;;;16.52;100.00
50790;BME280;37287;47.554;7.844;2023-09-19T01:10:48;97748.44;;;16.48;100.00
50790;BME280;37287;47.554;7.844;2023-09-19T01:17:19;97753.06;;;16.51;100.00
50790;BME280;37287;47.554;7.844;2023-09-19T01:20:03;97751.91;;;16.48;100.00
50790;BME280;37287;47.554;7.844;2023-09-19T01:25:50;97752.00;;;16.45;100.00
50790;BME280;37287;47.554;7.844;2023-09-19T01:28:43;97751.25;;;16.44;100.00
50790;BME280;37287;47.554;7.844;2023-09-19T01:31:14;97750.44;;;16.44;100.00
50790;BME280;37287;47.554;7.844;2023-09-19T01:36:38;97752.41;;;16.43;100.00
50790;BME280;37287;47.554;7.844;2023-09-19T01:39:10;97754.38;;;16.43;100.00
50790;BME280;37287;47.554;7.844;2023-09-19T01:41:49;97741.91;;;16.42;100.00
50790;BME280;37287;47.554;7.844;2023-09-19T01:44:31;97746.53;;;16.45;100.00
50790;BME280;37287;47.554;7.844;2023-09-19T01:47:08;97745.34;;;16.46;100.00
50790;BME280;37287;47.554;7.844;2023-09-19T01:49:50;97746.53;;;16.45;100.00
50790;BME280;37287;47.554;7.844;2023-09-19T01:52:25;97747.28;;;16.45;100.00
50790;BME280;37287;47.554;7.844;2023-09-19T01:54:58;97749.28;;;16.45;100.00
50790;BME280;37287;47.554;7.844;2023-09-19T01:57:40;97748.13;;;16.42;100.00
50790;BME280;37287;47.554;7.844;2023-09-19T02:00:12;97743.09;;;16.41;100.00
50790;BME280;37287;47.554;7.844;2023-09-19T02:02:43;97752.41;;;16.43;100.00
50790;BME280;37287;47.554;7.844;2023-09-19T02:05:13;97746.16;;;16.43;100.00
50790;BME280;37287;47.554;7.844;2023-09-19T02:07:48;97747.38;;;16.42;100.00
50790;BME280;37287;47.554;7.844;2023-09-19T02:10:17;97747.44;;;16.38;100.00
50790;BME280;37287;47.554;7.844;2023-09-19T02:12:44;97753.69;;;16.39;100.00
50790;BME280;37287;47.554;7.844;2023-09-19T02:15:11;97763.47;;;16.36;100.00
50790;BME280;37287;47.554;7.844;2023-09-19T02:17:40;97765.31;;;16.19;100.00
50790;BME280;37287;47.554;7.844;2023-09-19T02:20:08;97764.72;;;16.08;100.00
50790;BME280;37287;47.554;7.844;2023-09-19T02:22:36;97769.53;;;16.00;100.00
50790;BME280;37287;47.554;7.844;2023-09-19T02:25:10;97777.28;;;16.02;100.00
50790;BME280;37287;47.554;7.844;2023-09-19T02:27:37;97772.97;;;16.04;100.00
50790;BME280;37287;47.554;7.844;2023-09-19T02:30:04;97776.94;;;15.99;100.00
50790;BME280;37287;47.554;7.844;2023-09-19T02:32:35;97778.50;;;16.01;100.00
50790;BME280;37287;47.554;7.844;2023-09-19T02:35:03;97780.41;;;16.04;100.00
50790;BME280;37287;47.554;7.844;2023-09-19T02:37:31;97785.03;;;16.07;100.00
50790;BME280;37287;47.554;7.844;2023-09-19T02:40:00;97789.19;;;16.15;100.00
50790;BME280;37287;47.554;7.844;2023-09-19T02:42:29;97781.28;;;16.21;100.00
50790;BME280;37287;47.554;7.844;2023-09-19T02:44:56;97793.34;;;16.23;100.00
50790;BME280;37287;47.554;7.844;2023-09-19T02:47:23;97792.53;;;16.26;100.00
50790;BME280;37287;47.554;7.844;2023-09-19T02:49:50;97787.41;;;16.28;100.00
50790;BME280;37287;47.554;7.844;2023-09-19T02:52:16;97790.13;;;16.28;100.00
50790;BME280;37287;47.554;7.844;2023-09-19T02:54:45;97790.91;;;16.29;100.00
50790;BME280;37287;47.554;7.844;2023-09-19T02:57:13;97793.25;;;16.30;100.00
50790;BME280;37287;47.554;7.844;2023-09-19T02:59:40;97789.38;;;16.28;100.00
50790;BME280;37287;47.554;7.844;2023-09-19T03:02:08;97798.81;;;16.23;100.00
50790;BME280;37287;47.554;7.844;2023-09-19T03:04:37;97803.97;;;16.18;100.00
50790;BME280;37287;47.554;7.844;2023-09-19T03:07:06;97803.72;;;16.08;100.00
50790;BME280;37287;47.554;7.844;2023-09-19T03:09:37;97805.31;;;16.06;100.00
50790;BME280;37287;47.554;7.844;2023-09-19T03:12:04;97794.06;;;16.04;100.00
50790;BME280;37287;47.554;7.844;2023-09-19T03:14:31;97799.13;;;16.02;100.00
50790;BME280;37287;47.554;7.844;2023-09-19T03:17:02;97790.94;;;16.02;100.00
50790;BME280;37287;47.554;7.844;2023-09-19T03:19:33;97794.41;;;16.06;100.00
50790;BME280;37287;47.554;7.844;2023-09-19T03:22:01;97797.91;;;16.06;100.00
50790;BME280;37287;47.554;7.844;2023-09-19T03:24:29;97798.69;;;16.07;100.00
50790;BME280;37287;47.554;7.844;2023-09-19T03:26:56;97795.13;;;16.10;100.00
50790;BME280;37287;47.554;7.844;2023-09-19T03:29:23;97791.53;;;16.13;100.00
50790;BME280;37287;47.554;7.844;2023-09-19T03:31:50;97797.38;;;16.15;100.00
50790;BME280;37287;47.554;7.844;2023-09-19T03:34:16;97799.63;;;16.20;100.00
50790;BME280;37287;47.554;7.844;2023-09-19T03:36:43;97803.91;;;16.21;100.00
50790;BME280;37287;47.554;7.844;2023-09-19T03:39:13;97803.91;;;16.21;100.00
50790;BME280;37287;47.554;7.844;2023-09-19T03:41:42;97799.22;;;16.22;100.00
50790;BME280;37287;47.554;7.844;2023-09-19T03:44:08;97802.66;;;16.26;100.00
50790;BME280;37287;47.554;7.844;2023-09-19T03:46:36;97796.44;;;16.25;100.00
50790;BME280;37287;47.554;7.844;2023-09-19T03:49:04;97795.25;;;16.26;100.00
50790;BME280;37287;47.554;7.844;2023-09-19T03:51:30;97794.41;;;16.29;100.00
50790;BME280;37287;47.554;7.844;2023-09-19T03:53:59;97797.16;;;16.29;100.00
50790;BME280;37287;47.554;7.844;2023-09-19T03:56:26;97794.00;;;16.31;100.00
50790;BME280;37287;47.554;7.844;2023-09-19T03:58:52;97787.78;;;16.30;100.00
50790;BME280;37287;47.554;7.844;2023-09-19T04:01:19;97790.84;;;16.32;100.00
50790;BME280;37287;47.554;7.844;2023-09-19T04:03:46;97796.31;;;16.32;100.00
50790;BME280;37287;47.554;7.844;2023-09-19T04:06:14;97790.50;;;16.30;100.00
50790;BME280;37287;47.554;7.844;2023-09-19T04:08:45;97797.09;;;16.33;100.00
50790;BME280;37287;47.554;7.844;2023-09-19T04:11:15;97804.09;;;16.34;100.00
50790;BME280;37287;47.554;7.844;2023-09-19T04:13:43;97806.81;;;16.34;100.00
50790;BME280;37287;47.554;7.844;2023-09-19T04:16:10;97800.94;;;16.36;100.00
50790;BME280;37287;47.554;7.844;2023-09-19T04:18:37;97808.72;;;16.37;100.00
50790;BME280;37287;47.554;7.844;2023-09-19T04:21:04;97811.88;;;16.36;100.00
50790;BME280;37287;47.554;7.844;2023-09-19T04:23:32;97809.22;;;16.32;100.00
50790;BME280;37287;47.554;7.844;2023-09-19T04:25:59;97804.50;;;16.32;100.00
50790;BME280;37287;47.554;7.844;2023-09-19T04:28:28;97810.75;;;16.33;100.00
50790;BME280;37287;47.554;7.844;2023-09-19T04:31:00;97822.06;;;16.31;100.00
50790;BME280;37287;47.554;7.844;2023-09-19T04:33:26;97822.50;;;16.30;100.00
50790;BME280;37287;47.554;7.844;2023-09-19T04:35:56;97825.22;;;16.30;100.00
50790;BME280;37287;47.554;7.844;2023-09-19T04:38:42;97828.38;;;16.28;100.00
50790;BME280;37287;47.554;7.844;2023-09-19T04:41:12;97836.16;;;16.30;100.00
50790;BME280;37287;47.554;7.844;2023-09-19T04:43:39;97836.94;;;16.30;100.00
50790;BME280;37287;47.554;7.844;2023-09-19T04:46:06;97827.19;;;16.29;100.00
50790;BME280;37287;47.554;7.844;2023-09-19T04:48:33;97840.44;;;16.31;100.00
50790;BME280;37287;47.554;7.844;2023-09-19T04:51:03;97834.22;;;16.30;100.00
50790;BME280;37287;47.554;7.844;2023-09-19T04:53:29;97835.75;;;16.31;100.00
50790;BME280;37287;47.554;7.844;2023-09-19T04:55:56;97836.88;;;16.34;100.00
50790;BME280;37287;47.554;7.844;2023-09-19T04:58:26;97840.41;;;16.35;100.00
50790;BME280;37287;47.554;7.844;2023-09-19T05:01:00;97848.22;;;16.32;100.00
50790;BME280;37287;47.554;7.844;2023-09-19T05:03:30;97843.16;;;16.31;100.00
50790;BME280;37287;47.554;7.844;2023-09-19T05:05:57;97849.41;;;16.31;100.00
50790;BME280;37287;47.554;7.844;2023-09-19T05:08:24;97853.34;;;16.30;100.00
50790;BME280;37287;47.554;7.844;2023-09-19T05:10:53;97858.81;;;16.30;100.00
50790;BME280;37287;47.554;7.844;2023-09-19T05:13:22;97855.28;;;16.30;100.00
50790;BME280;37287;47.554;7.844;2023-09-19T05:15:54;97858.00;;;16.30;100.00
50790;BME280;37287;47.554;7.844;2023-09-19T05:18:24;97859.97;;;16.29;100.00
50790;BME280;37287;47.554;7.844;2023-09-19T05:20:52;97866.63;;;16.28;100.00
50790;BME280;37287;47.554;7.844;2023-09-19T05:23:18;97866.63;;;16.28;100.00
50790;BME280;37287;47.554;7.844;2023-09-19T05:25:49;97871.31;;;16.28;100.00
50790;BME280;37287;47.554;7.844;2023-09-19T05:28:17;97870.56;;;16.27;100.00
50790;BME280;37287;47.554;7.844;2023-09-19T05:30:44;97877.97;;;16.27;100.00
50790;BME280;37287;47.554;7.844;2023-09-19T05:33:14;97872.91;;;16.25;100.00
50790;BME280;37287;47.554;7.844;2023-09-19T05:35:41;97877.97;;;16.27;100.00
50790;BME280;37287;47.554;7.844;2023-09-19T05:38:10;97879.09;;;16.29;100.00
50790;BME280;37287;47.554;7.844;2023-09-19T05:40:45;97879.09;;;16.29;100.00
50790;BME280;37287;47.554;7.844;2023-09-19T05:43:12;97880.25;;;16.32;100.00
50790;BME280;37287;47.554;7.844;2023-09-19T05:45:41;97878.28;;;16.32;100.00
50790;BME280;37287;47.554;7.844;2023-09-19T05:48:11;97887.59;;;16.35;100.00
50790;BME280;37287;47.554;7.844;2023-09-19T05:50:39;97892.19;;;16.42;100.00
50790;BME280;37287;47.554;7.844;2023-09-19T05:53:06;97888.97;;;16.47;100.00
50790;BME280;37287;47.554;7.844;2023-09-19T05:55:33;97900.63;;;16.51;100.00
50790;BME280;37287;47.554;7.844;2023-09-19T05:58:00;97895.81;;;16.59;100.00
50790;BME280;37287;47.554;7.844;2023-09-19T06:00:26;97897.69;;;16.65;100.00
50790;BME280;37287;47.554;7.844;2023-09-19T06:02:58;97901.81;;;16.74;100.00
50790;BME280;37287;47.554;7.844;2023-09-19T06:05:26;97904.44;;;16.81;100.00
50790;BME280;37287;47.554;7.844;2023-09-19T06:07:53;97909.41;;;16.90;100.00
50790;BME280;37287;47.554;7.844;2023-09-19T06:10:21;97913.50;;;17.01;100.00
50790;BME280;37287;47.554;7.844;2023-09-19T06:12:51;97912.19;;;17.10;100.00
50790;BME280;37287;47.554;7.844;2023-09-19T06:15:17;97912.47;;;17.15;100.00
50790;BME280;37287;47.554;7.844;2023-09-19T06:17:50;97914.38;;;17.18;100.00
50790;BME280;37287;47.554;7.844;2023-09-19T06:20:17;97916.69;;;17.20;100.00
50790;BME280;37287;47.554;7.844;2023-09-19T06:22:48;97919.84;;;17.18;100.00
50790;BME280;37287;47.554;7.844;2023-09-19T06:25:21;97914.41;;;17.15;100.00
50790;BME280;37287;47.554;7.844;2023-09-19T06:27:50;97912.19;;;17.10;100.00
50790;BME280;37287;47.554;7.844;2023-09-19T06:30:22;97921.56;;;17.09;100.00
50790;BME280;37287;47.554;7.844;2023-09-19T06:32:59;97914.97;;;17.06;100.00
50790;BME280;37287;47.554;7.844;2023-09-19T06:35:28;97917.78;;;17.02;100.00
50790;BME280;37287;47.554;7.844;2023-09-19T06:37:57;97919.72;;;17.02;100.00
50790;BME280;37287;47.554;7.844;2023-09-19T06:40:30;97920.53;;;17.02;100.00
50790;BME280;37287;47.554;7.844;2023-09-19T06:42:57;97923.25;;;17.02;100.00
50790;BME280;37287;47.554;7.844;2023-09-19T06:45:26;97924.78;;;17.04;100.00
50790;BME280;37287;47.554;7.844;2023-09-19T06:47:54;97925.91;;;17.06;100.00
50790;BME280;37287;47.554;7.844;2023-09-19T06:50:26;97924.31;;;17.09;100.00
50790;BME280;37287;47.554;7.844;2023-09-19T06:53:03;97927.00;;;17.12;100.00
50790;BME280;37287;47.554;7.844;2023-09-19T06:55:34;97925.31;;;17.18;100.00
50790;BME280;37287;47.554;7.844;2023-09-19T06:58:00;97928.00;;;17.22;100.00
50790;BME280;37287;47.554;7.844;2023-09-19T07:00:29;97931.03;;;17.28;100.00
50790;BME280;37287;47.554;7.844;2023-09-19T07:03:02;97933.66;;;17.31;100.00
50790;BME280;37287;47.554;7.844;2023-09-19T07:05:31;97935.09;;;17.40;100.00
50790;BME280;37287;47.554;7.844;2023-09-19T07:08:00;97932.59;;;17.49;100.00
50790;BME280;37287;47.554;7.844;2023-09-19T07:10:29;97940.94;;;17.62;100.00
50790;BME280;37287;47.554;7.844;2023-09-19T07:12:57;97938.47;;;17.67;100.00
50790;BME280;37287;47.554;7.844;2023-09-19T07:15:27;97934.94;;;17.67;100.00
50790;BME280;37287;47.554;7.844;2023-09-19T07:17:55;97947.94;;;17.63;100.00
50790;BME280;37287;47.554;7.844;2023-09-19T07:20:24;97941.50;;;17.73;100.00
50790;BME280;37287;47.554;7.844;2023-09-19T07:22:54;97939.03;;;17.79;100.00
50790;BME280;37287;47.554;7.844;2023-09-19T07:25:27;97944.56;;;17.75;100.00
50790;BME280;37287;47.554;7.844;2023-09-19T07:27:57;97948.50;;;17.74;100.00
50790;BME280;37287;47.554;7.844;2023-09-19T07:30:29;97946.19;;;17.73;100.00
50790;BME280;37287;47.554;7.844;2023-09-19T07:32:57;97952.44;;;17.73;100.00
50790;BME280;37287;47.554;7.844;2023-09-19T07:35:23;97951.50;;;17.80;100.00
50790;BME280;37287;47.554;7.844;2023-09-19T07:37:50;97961.38;;;17.97;100.00
50790;BME280;37287;47.554;7.844;2023-09-19T07:40:19;97956.59;;;18.01;100.00
50790;BME280;37287;47.554;7.844;2023-09-19T07:42:47;97962.69;;;18.09;100.00
50790;BME280;37287;47.554;7.844;2023-09-19T07:45:16;97965.69;;;18.15;100.00
50790;BME280;37287;47.554;7.844;2023-09-19T07:47:50;97954.50;;;18.26;100.00
50790;BME280;37287;47.554;7.844;2023-09-19T07:50:21;97953.25;;;18.47;100.00
50790;BME280;37287;47.554;7.844;2023-09-19T07:52:49;97958.13;;;18.39;100.00
50790;BME280;37287;47.554;7.844;2023-09-19T07:55:20;97962.47;;;18.36;100.00
50790;BME280;37287;47.554;7.844;2023-09-19T07:57:50;97967.63;;;18.34;100.00
50790;BME280;37287;47.554;7.844;2023-09-19T08:00:19;97966.94;;;18.30;100.00
50790;BME280;37287;47.554;7.844;2023-09-19T08:02:46;97973.00;;;18.21;100.00
50790;BME280;37287;47.554;7.844;2023-09-19T08:05:29;97978.75;;;18.27;100.00
50790;BME280;37287;47.554;7.844;2023-09-19T08:07:56;97972.63;;;18.19;100.00
50790;BME280;37287;47.554;7.844;2023-09-19T08:10:23;97982.13;;;18.15;100.00
50790;BME280;37287;47.554;7.844;2023-09-19T08:12:55;97985.31;;;18.13;100.00
50790;BME280;37287;47.554;7.844;2023-09-19T08:15:24;97983.47;;;18.07;100.00
50790;BME280;37287;47.554;7.844;2023-09-19T08:17:53;97981.44;;;18.11;100.00
50790;BME280;37287;47.554;7.844;2023-09-19T08:20:26;97982.56;;;18.13;100.00
50790;BME280;37287;47.554;7.844;2023-09-19T08:22:53;97984.53;;;18.13;100.00
50790;BME280;37287;47.554;7.844;2023-09-19T08:25:23;97986.63;;;18.05;100.00
50790;BME280;37287;47.554;7.844;2023-09-19T08:27:54;97987.06;;;18.03;100.00
50790;BME280;37287;47.554;7.844;2023-09-19T08:30:24;97991.00;;;18.02;100.00
50790;BME280;37287;47.554;7.844;2023-09-19T08:32:56;97996.47;;;18.02;100.00
50790;BME280;37287;47.554;7.844;2023-09-19T08:35:25;97995.78;;;17.98;100.00
50790;BME280;37287;47.554;7.844;2023-09-19T08:37:53;97998.31;;;18.09;100.00
50790;BME280;37287;47.554;7.844;2023-09-19T08:40:22;97989.59;;;18.14;100.00
50790;BME280;37287;47.554;7.844;2023-09-19T08:42:50;97998.41;;;18.22;100.00
50790;BME280;37287;47.554;7.844;2023-09-19T08:45:17;97996.03;;;18.24;100.00
50790;BME280;37287;47.554;7.844;2023-09-19T08:50:52;97997.66;;;18.21;100.00
50790;BME280;37287;47.554;7.844;2023-09-19T08:53:46;98000.81;;;18.20;100.00
50790;BME280;37287;47.554;7.844;2023-09-19T08:56:18;98004.28;;;18.24;100.00
50790;BME280;37287;47.554;7.844;2023-09-19T08:58:51;98001.53;;;18.24;100.00
50790;BME280;37287;47.554;7.844;2023-09-19T09:01:28;98003.75;;;18.29;100.00
50790;BME280;37287;47.554;7.844;2023-09-19T09:03:57;98002.84;;;18.36;100.00
50790;BME280;37287;47.554;7.844;2023-09-19T09:06:25;97997.81;;;18.51;100.00
50790;BME280;37287;47.554;7.844;2023-09-19T09:08:54;97995.94;;;18.64;100.00
50790;BME280;37287;47.554;7.844;2023-09-19T09:11:21;98001.25;;;18.71;100.00
50790;BME280;37287;47.554;7.844;2023-09-19T09:13:48;97993.84;;;18.88;100.00
50790;BME280;37287;47.554;7.844;2023-09-19T09:16:18;97996.16;;;19.06;100.00
50790;BME280;37287;47.554;7.844;2023-09-19T09:18:46;97987.75;;;19.14;100.00
50790;BME280;37287;47.554;7.844;2023-09-19T09:21:23;97994.16;;;19.23;100.00
50790;BME280;37287;47.554;7.844;2023-09-19T09:23:53;97993.13;;;19.34;99.96
50790;BME280;37287;47.554;7.844;2023-09-19T09:29:07;97987.47;;;19.54;100.00
50790;BME280;37287;47.554;7.844;2023-09-19T09:31:34;97992.13;;;19.57;100.00
50790;BME280;37287;47.554;7.844;2023-09-19T09:34:03;97988.50;;;19.60;99.74
50790;BME280;37287;47.554;7.844;2023-09-19T09:36:39;97989.47;;;19.53;98.25
50790;BME280;37287;47.554;7.844;2023-09-19T09:39:10;97987.34;;;19.45;99.27
50790;BME280;37287;47.554;7.844;2023-09-19T09:41:46;97988.16;;;19.58;98.44
50790;BME280;37287;47.554;7.844;2023-09-19T09:44:16;97989.97;;;19.65;97.61
50790;BME280;37287;47.554;7.844;2023-09-19T09:46:47;97978.69;;;19.75;96.79
50790;BME280;37287;47.554;7.844;2023-09-19T09:49:26;97984.31;;;19.85;95.94
50790;BME280;37287;47.554;7.844;2023-09-19T09:52:03;97982.25;;;19.89;95.38
50790;BME280;37287;47.554;7.844;2023-09-19T09:54:37;97986.63;;;19.86;95.53
50790;BME280;37287;47.554;7.844;2023-09-19T09:57:10;97984.69;;;19.70;97.20
50790;BME280;37287;47.554;7.844;2023-09-19T09:59:57;97975.53;;;19.61;95.26
50790;BME280;37287;47.554;7.844;2023-09-19T10:02:42;97973.72;;;19.70;96.45
50790;BME280;37287;47.554;7.844;2023-09-19T10:05:21;97980.19;;;19.93;96.63
50790;BME280;37287;47.554;7.844;2023-09-19T10:07:54;97978.78;;;20.01;96.32
50790;BME280;37287;47.554;7.844;2023-09-19T10:10:30;97976.56;;;20.09;95.81
50790;BME280;37287;47.554;7.844;2023-09-19T10:13:05;97977.38;;;20.22;96.11
50790;BME280;37287;47.554;7.844;2023-09-19T10:15:36;97979.69;;;20.24;95.87
50790;BME280;37287;47.554;7.844;2023-09-19T10:18:04;97972.06;;;20.02;96.37
50790;BME280;37287;47.554;7.844;2023-09-19T10:20:32;97966.69;;;20.12;95.54
50790;BME280;37287;47.554;7.844;2023-09-19T10:23:01;97971.44;;;20.11;95.10
50790;BME280;37287;47.554;7.844;2023-09-19T10:25:30;97968.78;;;20.07;95.08
50790;BME280;37287;47.554;7.844;2023-09-19T10:28:00;97969.84;;;19.97;95.07
50790;BME280;37287;47.554;7.844;2023-09-19T10:30:31;97967.13;;;19.97;94.86
50790;BME280;37287;47.554;7.844;2023-09-19T10:33:02;97967.13;;;20.10;95.70
50790;BME280;37287;47.554;7.844;2023-09-19T10:35:32;97963.19;;;20.24;93.78
50790;BME280;37287;47.554;7.844;2023-09-19T10:38:01;97962.44;;;20.36;93.26
50790;BME280;37287;47.554;7.844;2023-09-19T10:40:28;97961.09;;;20.54;92.48
50790;BME280;37287;47.554;7.844;2023-09-19T10:43:01;97946.81;;;20.59;92.83
50790;BME280;37287;47.554;7.844;2023-09-19T10:45:34;97953.66;;;20.67;92.60
50790;BME280;37287;47.554;7.844;2023-09-19T10:48:04;97958.66;;;20.94;92.67
50790;BME280;37287;47.554;7.844;2023-09-19T10:50:47;97962.09;;;21.34;82.78
50790;BME280;37287;47.554;7.844;2023-09-19T10:53:17;97943.75;;;21.53;88.24
50790;BME280;37287;47.554;7.844;2023-09-19T10:55:56;97948.34;;;21.56;84.77
50790;BME280;37287;47.554;7.844;2023-09-19T10:58:32;97947.44;;;21.59;85.38
50790;BME280;37287;47.554;7.844;2023-09-19T11:01:06;97945.59;;;21.56;87.70
50790;BME280;37287;47.554;7.844;2023-09-19T11:03:44;97943.22;;;21.67;87.84
50790;BME280;37287;47.554;7.844;2023-09-19T11:06:13;97943.56;;;21.69;87.29
50790;BME280;37287;47.554;7.844;2023-09-19T11:08:53;97945.59;;;21.78;85.12
50790;BME280;37287;47.554;7.844;2023-09-19T11:11:39;97945.28;;;21.76;85.62
50790;BME280;37287;47.554;7.844;2023-09-19T11:30:45;97931.56;;;21.85;85.44
50790;BME280;37287;47.554;7.844;2023-09-19T11:33:28;97921.66;;;21.97;81.69
50790;BME280;37287;47.554;7.844;2023-09-19T11:43:52;97922.50;;;22.38;83.10
50790;BME280;37287;47.554;7.844;2023-09-19T11:46:24;97914.66;;;22.37;82.49
50790;BME280;37287;47.554;7.844;2023-09-19T11:48:51;97906.25;;;22.40;84.87
50790;BME280;37287;47.554;7.844;2023-09-19T11:51:22;97903.22;;;22.47;83.69
50790;BME280;37287;47.554;7.844;2023-09-19T11:53:51;97905.16;;;22.38;83.99
50790;BME280;37287;47.554;7.844;2023-09-19T11:56:20;97903.38;;;22.44;82.14
50790;BME280;37287;47.554;7.844;2023-09-19T11:58:50;97899.53;;;22.50;82.37
50790;BME280;37287;47.554;7.844;2023-09-19T12:01:29;97903.06;;;22.51;80.65
50790;BME280;37287;47.554;7.844;2023-09-19T12:03:58;97900.50;;;22.57;80.29
50790;BME280;37287;47.554;7.844;2023-09-19T12:06:27;97895.88;;;22.63;80.28
50790;BME280;37287;47.554;7.844;2023-09-19T12:08:56;97896.22;;;22.65;80.86
50790;BME280;37287;47.554;7.844;2023-09-19T12:11:29;97887.19;;;22.74;80.79
50790;BME280;37287;47.554;7.844;2023-09-19T12:14:00;97885.66;;;22.82;79.84
50790;BME280;37287;47.554;7.844;2023-09-19T12:16:27;97889.81;;;22.87;80.50
50790;BME280;37287;47.554;7.844;2023-09-19T12:18:57;97891.63;;;22.80;80.49
50790;BME280;37287;47.554;7.844;2023-09-19T12:21:30;97890.84;;;22.80;77.41
50790;BME280;37287;47.554;7.844;2023-09-19T12:24:20;97882.91;;;22.82;73.66
50790;BME280;37287;47.554;7.844;2023-09-19T12:26:46;97880.91;;;22.92;80.34
50790;BME280;37287;47.554;7.844;2023-09-19T12:29:21;97878.16;;;23.01;80.25
50790;BME280;37287;47.554;7.844;2023-09-19T12:31:58;97880.31;;;23.06;79.21
50790;BME280;37287;47.554;7.844;2023-09-19T12:34:29;97884.47;;;23.20;76.97
50790;BME280;37287;47.554;7.844;2023-09-19T12:37:14;97871.28;;;23.15;73.47
50790;BME280;37287;47.554;7.844;2023-09-19T12:39:51;97870.78;;;23.26;77.53
50790;BME280;37287;47.554;7.844;2023-09-19T12:42:24;97860.50;;;23.45;75.46
50790;BME280;37287;47.554;7.844;2023-09-19T12:44:55;97871.56;;;23.45;76.81
50790;BME280;37287;47.554;7.844;2023-09-19T12:47:24;97864.63;;;23.59;77.21
50790;BME280;37287;47.554;7.844;2023-09-19T12:52:48;97863.13;;;23.39;77.48
50790;BME280;37287;47.554;7.844;2023-09-19T12:55:29;97868.03;;;23.26;75.22
50790;BME280;37287;47.554;7.844;2023-09-19T12:58:09;97861.47;;;23.14;73.93
50790;BME280;37287;47.554;7.844;2023-09-19T13:00:43;97862.81;;;23.09;75.65
50790;BME280;37287;47.554;7.844;2023-09-19T13:03:24;97856.69;;;23.14;74.84
50790;BME280;37287;47.554;7.844;2023-09-19T13:08:23;97854.53;;;23.37;76.31
50790;BME280;37287;47.554;7.844;2023-09-19T13:11:12;97849.88;;;23.52;72.09
50790;BME280;37287;47.554;7.844;2023-09-19T13:14:16;97842.25;;;23.47;70.86
50790;BME280;37287;47.554;7.844;2023-09-19T13:19:42;97848.13;;;23.22;68.15
50790;BME280;37287;47.554;7.844;2023-09-19T13:22:41;97839.50;;;23.20;69.88
50790;BME280;37287;47.554;7.844;2023-09-19T13:25:16;97838.56;;;23.04;72.21
50790;BME280;37287;47.554;7.844;2023-09-19T13:30:19;97833.69;;;22.99;75.80
50790;BME280;37287;47.554;7.844;2023-09-19T13:32:46;97829.69;;;23.09;74.07
50790;BME280;37287;47.554;7.844;2023-09-19T13:35:14;97834.88;;;23.07;72.25
50790;BME280;37287;47.554;7.844;2023-09-19T13:37:42;97821.56;;;23.15;72.81
50790;BME280;37287;47.554;7.844;2023-09-19T13:40:13;97828.16;;;23.17;72.03
50790;BME280;37287;47.554;7.844;2023-09-19T13:42:43;97823.69;;;23.20;72.67
50790;BME280;37287;47.554;7.844;2023-09-19T13:45:11;97816.66;;;23.19;72.88
50790;BME280;37287;47.554;7.844;2023-09-19T13:47:39;97820.19;;;23.29;72.65
50790;BME280;37287;47.554;7.844;2023-09-19T13:50:07;97817.41;;;23.29;71.94
50790;BME280;37287;47.554;7.844;2023-09-19T13:52:34;97820.47;;;23.40;71.69
50790;BME280;37287;47.554;7.844;2023-09-19T13:55:01;97813.72;;;23.32;71.08
50790;BME280;37287;47.554;7.844;2023-09-19T13:57:28;97810.34;;;23.18;70.82
50790;BME280;37287;47.554;7.844;2023-09-19T13:59:56;97804.50;;;23.26;70.75
50790;BME280;37287;47.554;7.844;2023-09-19T14:02:24;97800.19;;;23.34;71.16